LRTZ - TUZLA

Compiled: 17:56:40 on 22/07/2018

Latest METAR/SPECI Reports

METAR LRTZ 221700Z 30015G25KT 9999 VCTS SCT025TCU BKN100 23/18 Q1009 BLU BLU=

Previous reports

METAR LRTZ 221600Z 18012KT 9999 FEW030CB BKN100 27/19 Q1007 BLU BLU=
METAR LRTZ 221500Z 15012KT 9999 VCTS FEW030TCU BKN100 27/20 Q1008 BLU BLU=
METAR LRTZ 221400Z 15012KT 9999 FEW030TCU BKN100 26/20 Q1008 BLU BLU=
METAR LRTZ 221300Z 15012KT 9999 SCT030 28/19 Q1008 BLU BLU=

Latest TAF report

TAF LRTZ 221700Z 2218/2318 24008KT 9999 SCT030 BKN090 TEMPO 2118/2120 4000 TSRA SCT010 BKN020CB BKN050 TEMPO 2302/2306 3000 BR SCT010 TEMPO 2312/2316 7000 SHRA SCT015 BKN025CB BKN070=

Valid WARNINGS

No valid warnings for LRTZ